sensor_id;sensor_type;location;lat;lon;timestamp;P1;durP1;ratioP1;P2;durP2;ratioP2
20445;SDS011;10382;49.140;9.234;2023-10-09T00:01:25;15.20;;;7.80;;
20445;SDS011;10382;49.140;9.234;2023-10-09T00:03:52;13.90;;;6.60;;
20445;SDS011;10382;49.140;9.234;2023-10-09T00:06:20;20.07;;;7.03;;
20445;SDS011;10382;49.140;9.234;2023-10-09T00:08:58;13.23;;;6.83;;
20445;SDS011;10382;49.140;9.234;2023-10-09T00:11:37;20.60;;;7.93;;
20445;SDS011;10382;49.140;9.234;2023-10-09T00:14:07;23.63;;;7.67;;
20445;SDS011;10382;49.140;9.234;2023-10-09T00:16:33;21.37;;;8.20;;
20445;SDS011;10382;49.140;9.234;2023-10-09T00:19:02;15.07;;;8.10;;
20445;SDS011;10382;49.140;9.234;2023-10-09T00:21:39;16.20;;;7.53;;
20445;SDS011;10382;49.140;9.234;2023-10-09T00:24:08;18.43;;;7.60;;
20445;SDS011;10382;49.140;9.234;2023-10-09T00:26:39;16.57;;;8.70;;
20445;SDS011;10382;49.140;9.234;2023-10-09T00:29:10;10.93;;;7.40;;
20445;SDS011;10382;49.140;9.234;2023-10-09T00:31:46;15.60;;;7.87;;
20445;SDS011;10382;49.140;9.234;2023-10-09T00:34:21;22.57;;;7.70;;
20445;SDS011;10382;49.140;9.234;2023-10-09T00:36:51;14.17;;;7.87;;
20445;SDS011;10382;49.140;9.234;2023-10-09T00:39:21;15.00;;;7.70;;
20445;SDS011;10382;49.140;9.234;2023-10-09T00:41:58;18.87;;;8.20;;
20445;SDS011;10382;49.140;9.234;2023-10-09T00:44:26;16.37;;;8.33;;
20445;SDS011;10382;49.140;9.234;2023-10-09T00:47:03;20.13;;;8.37;;
20445;SDS011;10382;49.140;9.234;2023-10-09T00:49:45;23.90;;;9.57;;
20445;SDS011;10382;49.140;9.234;2023-10-09T00:52:14;19.43;;;7.93;;
20445;SDS011;10382;49.140;9.234;2023-10-09T00:54:53;16.43;;;8.53;;
20445;SDS011;10382;49.140;9.234;2023-10-09T00:57:26;16.00;;;8.57;;
20445;SDS011;10382;49.140;9.234;2023-10-09T00:59:56;13.20;;;7.27;;
20445;SDS011;10382;49.140;9.234;2023-10-09T01:02:28;31.87;;;7.77;;
20445;SDS011;10382;49.140;9.234;2023-10-09T01:05:02;22.33;;;8.00;;
20445;SDS011;10382;49.140;9.234;2023-10-09T01:07:45;22.13;;;12.13;;
20445;SDS011;10382;49.140;9.234;2023-10-09T01:10:15;20.47;;;9.17;;
20445;SDS011;10382;49.140;9.234;2023-10-09T01:12:43;17.27;;;10.40;;
20445;SDS011;10382;49.140;9.234;2023-10-09T01:15:12;20.67;;;8.40;;
20445;SDS011;10382;49.140;9.234;2023-10-09T01:18:01;29.47;;;8.37;;
20445;SDS011;10382;49.140;9.234;2023-10-09T01:20:29;19.43;;;8.43;;
20445;SDS011;10382;49.140;9.234;2023-10-09T01:23:07;25.17;;;9.40;;
20445;SDS011;10382;49.140;9.234;2023-10-09T01:25:35;21.07;;;7.67;;
20445;SDS011;10382;49.140;9.234;2023-10-09T01:28:08;29.10;;;8.87;;
20445;SDS011;10382;49.140;9.234;2023-10-09T01:30:35;20.27;;;8.40;;
20445;SDS011;10382;49.140;9.234;2023-10-09T01:33:06;17.33;;;9.83;;
20445;SDS011;10382;49.140;9.234;2023-10-09T01:35:40;20.73;;;8.90;;
20445;SDS011;10382;49.140;9.234;2023-10-09T01:38:14;23.43;;;9.50;;
20445;SDS011;10382;49.140;9.234;2023-10-09T01:40:41;14.70;;;8.50;;
20445;SDS011;10382;49.140;9.234;2023-10-09T01:43:10;18.77;;;8.43;;
20445;SDS011;10382;49.140;9.234;2023-10-09T01:45:37;13.07;;;8.43;;
20445;SDS011;10382;49.140;9.234;2023-10-09T01:48:08;28.47;;;7.83;;
20445;SDS011;10382;49.140;9.234;2023-10-09T01:50:37;13.33;;;8.00;;
20445;SDS011;10382;49.140;9.234;2023-10-09T01:53:07;22.43;;;9.17;;
20445;SDS011;10382;49.140;9.234;2023-10-09T01:55:35;18.73;;;8.47;;
20445;SDS011;10382;49.140;9.234;2023-10-09T01:58:04;14.80;;;7.30;;
20445;SDS011;10382;49.140;9.234;2023-10-09T02:00:33;19.20;;;9.10;;
20445;SDS011;10382;49.140;9.234;2023-10-09T02:03:19;17.40;;;7.77;;
20445;SDS011;10382;49.140;9.234;2023-10-09T02:05:48;12.90;;;7.07;;
20445;SDS011;10382;49.140;9.234;2023-10-09T02:08:16;17.40;;;7.90;;
20445;SDS011;10382;49.140;9.234;2023-10-09T02:10:48;15.10;;;8.23;;
20445;SDS011;10382;49.140;9.234;2023-10-09T02:13:15;23.33;;;8.07;;
20445;SDS011;10382;49.140;9.234;2023-10-09T02:15:43;24.83;;;8.50;;
20445;SDS011;10382;49.140;9.234;2023-10-09T02:18:24;40.00;;;9.60;;
20445;SDS011;10382;49.140;9.234;2023-10-09T02:21:05;20.03;;;9.90;;
20445;SDS011;10382;49.140;9.234;2023-10-09T02:23:38;26.70;;;9.93;;
20445;SDS011;10382;49.140;9.234;2023-10-09T02:26:13;23.50;;;9.37;;
20445;SDS011;10382;49.140;9.234;2023-10-09T02:28:45;24.50;;;8.77;;
20445;SDS011;10382;49.140;9.234;2023-10-09T02:31:18;19.77;;;8.30;;
20445;SDS011;10382;49.140;9.234;2023-10-09T02:33:48;24.30;;;9.40;;
20445;SDS011;10382;49.140;9.234;2023-10-09T02:36:16;21.47;;;8.67;;
20445;SDS011;10382;49.140;9.234;2023-10-09T02:38:43;15.27;;;7.80;;
20445;SDS011;10382;49.140;9.234;2023-10-09T02:41:15;14.13;;;7.23;;
20445;SDS011;10382;49.140;9.234;2023-10-09T02:43:47;16.03;;;7.80;;
20445;SDS011;10382;49.140;9.234;2023-10-09T02:46:16;34.90;;;8.63;;
20445;SDS011;10382;49.140;9.234;2023-10-09T02:48:45;21.70;;;9.67;;
20445;SDS011;10382;49.140;9.234;2023-10-09T02:51:16;15.33;;;7.67;;
20445;SDS011;10382;49.140;9.234;2023-10-09T02:53:58;11.77;;;6.63;;
20445;SDS011;10382;49.140;9.234;2023-10-09T02:56:33;38.37;;;9.63;;
20445;SDS011;10382;49.140;9.234;2023-10-09T02:59:03;20.53;;;7.10;;
20445;SDS011;10382;49.140;9.234;2023-10-09T03:01:32;13.83;;;8.10;;
20445;SDS011;10382;49.140;9.234;2023-10-09T03:04:01;16.53;;;8.40;;
20445;SDS011;10382;49.140;9.234;2023-10-09T03:06:30;15.57;;;7.93;;
20445;SDS011;10382;49.140;9.234;2023-10-09T03:09:00;19.93;;;9.33;;
20445;SDS011;10382;49.140;9.234;2023-10-09T03:11:42;15.90;;;9.73;;
20445;SDS011;10382;49.140;9.234;2023-10-09T03:14:11;25.73;;;9.10;;
20445;SDS011;10382;49.140;9.234;2023-10-09T03:16:38;16.70;;;8.47;;
20445;SDS011;10382;49.140;9.234;2023-10-09T03:19:05;17.87;;;7.63;;
20445;SDS011;10382;49.140;9.234;2023-10-09T03:21:32;20.30;;;8.60;;
20445;SDS011;10382;49.140;9.234;2023-10-09T03:23:59;14.60;;;7.70;;
20445;SDS011;10382;49.140;9.234;2023-10-09T03:26:29;34.03;;;9.67;;
20445;SDS011;10382;49.140;9.234;2023-10-09T03:28:58;14.57;;;8.50;;
20445;SDS011;10382;49.140;9.234;2023-10-09T03:31:26;22.63;;;9.37;;
20445;SDS011;10382;49.140;9.234;2023-10-09T03:33:56;17.20;;;8.77;;
20445;SDS011;10382;49.140;9.234;2023-10-09T03:36:22;14.97;;;7.67;;
20445;SDS011;10382;49.140;9.234;2023-10-09T03:38:51;21.47;;;8.63;;
20445;SDS011;10382;49.140;9.234;2023-10-09T03:41:23;26.60;;;9.43;;
20445;SDS011;10382;49.140;9.234;2023-10-09T03:43:51;16.80;;;8.50;;
20445;SDS011;10382;49.140;9.234;2023-10-09T03:46:20;34.00;;;8.20;;
20445;SDS011;10382;49.140;9.234;2023-10-09T03:48:51;17.30;;;8.37;;
20445;SDS011;10382;49.140;9.234;2023-10-09T03:51:21;17.07;;;8.70;;
20445;SDS011;10382;49.140;9.234;2023-10-09T03:53:48;19.33;;;8.60;;
20445;SDS011;10382;49.140;9.234;2023-10-09T03:56:16;18.50;;;9.40;;
20445;SDS011;10382;49.140;9.234;2023-10-09T03:58:44;15.73;;;8.47;;
20445;SDS011;10382;49.140;9.234;2023-10-09T04:01:12;17.80;;;8.37;;
20445;SDS011;10382;49.140;9.234;2023-10-09T04:03:49;23.77;;;7.83;;
20445;SDS011;10382;49.140;9.234;2023-10-09T04:06:20;30.13;;;9.53;;
20445;SDS011;10382;49.140;9.234;2023-10-09T04:08:47;18.77;;;8.60;;
20445;SDS011;10382;49.140;9.234;2023-10-09T04:11:14;14.07;;;7.90;;
20445;SDS011;10382;49.140;9.234;2023-10-09T04:13:41;35.23;;;9.37;;
20445;SDS011;10382;49.140;9.234;2023-10-09T04:16:11;18.83;;;8.27;;
20445;SDS011;10382;49.140;9.234;2023-10-09T04:19:00;13.40;;;8.33;;
20445;SDS011;10382;49.140;9.234;2023-10-09T04:21:36;28.10;;;10.20;;
20445;SDS011;10382;49.140;9.234;2023-10-09T04:24:03;16.83;;;8.80;;
20445;SDS011;10382;49.140;9.234;2023-10-09T04:26:48;22.13;;;8.90;;
20445;SDS011;10382;49.140;9.234;2023-10-09T04:29:21;19.37;;;9.20;;
20445;SDS011;10382;49.140;9.234;2023-10-09T04:31:52;25.80;;;8.37;;
20445;SDS011;10382;49.140;9.234;2023-10-09T04:34:21;23.13;;;9.33;;
20445;SDS011;10382;49.140;9.234;2023-10-09T04:36:49;17.27;;;7.17;;
20445;SDS011;10382;49.140;9.234;2023-10-09T04:39:17;18.63;;;8.43;;
20445;SDS011;10382;49.140;9.234;2023-10-09T04:42:12;26.40;;;15.10;;
20445;SDS011;10382;49.140;9.234;2023-10-09T04:45:08;22.23;;;8.83;;
20445;SDS011;10382;49.140;9.234;2023-10-09T04:47:57;24.57;;;9.27;;
20445;SDS011;10382;49.140;9.234;2023-10-09T04:50:33;20.83;;;9.63;;
20445;SDS011;10382;49.140;9.234;2023-10-09T04:53:10;21.33;;;8.93;;
20445;SDS011;10382;49.140;9.234;2023-10-09T04:55:53;19.57;;;10.13;;
20445;SDS011;10382;49.140;9.234;2023-10-09T04:58:19;18.80;;;8.90;;
20445;SDS011;10382;49.140;9.234;2023-10-09T05:00:51;36.07;;;10.90;;
20445;SDS011;10382;49.140;9.234;2023-10-09T05:03:38;20.97;;;8.40;;
20445;SDS011;10382;49.140;9.234;2023-10-09T05:06:24;15.83;;;8.00;;
20445;SDS011;10382;49.140;9.234;2023-10-09T05:09:19;18.50;;;7.83;;
20445;SDS011;10382;49.140;9.234;2023-10-09T05:11:47;23.13;;;7.77;;
20445;SDS011;10382;49.140;9.234;2023-10-09T05:14:19;15.13;;;7.77;;
20445;SDS011;10382;49.140;9.234;2023-10-09T05:17:03;18.53;;;8.37;;
20445;SDS011;10382;49.140;9.234;2023-10-09T05:19:29;27.57;;;7.97;;
20445;SDS011;10382;49.140;9.234;2023-10-09T05:22:09;25.57;;;7.47;;
20445;SDS011;10382;49.140;9.234;2023-10-09T05:24:54;27.40;;;9.20;;
20445;SDS011;10382;49.140;9.234;2023-10-09T05:27:22;13.20;;;7.33;;
20445;SDS011;10382;49.140;9.234;2023-10-09T05:30:10;15.70;;;7.60;;
20445;SDS011;10382;49.140;9.234;2023-10-09T05:32:50;21.70;;;8.13;;
20445;SDS011;10382;49.140;9.234;2023-10-09T05:35:20;21.87;;;7.60;;
20445;SDS011;10382;49.140;9.234;2023-10-09T05:37:56;23.13;;;7.90;;
20445;SDS011;10382;49.140;9.234;2023-10-09T05:40:40;16.90;;;7.43;;
20445;SDS011;10382;49.140;9.234;2023-10-09T05:43:08;15.50;;;7.60;;
20445;SDS011;10382;49.140;9.234;2023-10-09T05:45:55;24.10;;;7.80;;
20445;SDS011;10382;49.140;9.234;2023-10-09T05:48:32;17.43;;;7.83;;
20445;SDS011;10382;49.140;9.234;2023-10-09T05:51:16;24.03;;;7.73;;
20445;SDS011;10382;49.140;9.234;2023-10-09T05:53:58;30.80;;;7.77;;
20445;SDS011;10382;49.140;9.234;2023-10-09T05:56:38;20.00;;;8.90;;
20445;SDS011;10382;49.140;9.234;2023-10-09T05:59:23;17.63;;;7.37;;
20445;SDS011;10382;49.140;9.234;2023-10-09T06:02:07;24.57;;;8.43;;
20445;SDS011;10382;49.140;9.234;2023-10-09T06:04:50;15.17;;;7.93;;
20445;SDS011;10382;49.140;9.234;2023-10-09T06:07:20;18.80;;;8.37;;
20445;SDS011;10382;49.140;9.234;2023-10-09T06:10:10;21.10;;;8.77;;
20445;SDS011;10382;49.140;9.234;2023-10-09T06:12:43;21.30;;;9.03;;
20445;SDS011;10382;49.140;9.234;2023-10-09T06:15:21;21.27;;;8.80;;
20445;SDS011;10382;49.140;9.234;2023-10-09T06:18:04;16.67;;;8.10;;
20445;SDS011;10382;49.140;9.234;2023-10-09T06:20:45;14.13;;;7.20;;
20445;SDS011;10382;49.140;9.234;2023-10-09T06:23:30;17.77;;;8.80;;
20445;SDS011;10382;49.140;9.234;2023-10-09T06:26:24;18.40;;;8.67;;
20445;SDS011;10382;49.140;9.234;2023-10-09T06:28:51;29.73;;;8.80;;
20445;SDS011;10382;49.140;9.234;2023-10-09T06:31:39;18.13;;;8.53;;
20445;SDS011;10382;49.140;9.234;2023-10-09T06:34:24;26.80;;;8.47;;
20445;SDS011;10382;49.140;9.234;2023-10-09T06:37:00;25.10;;;8.10;;
20445;SDS011;10382;49.140;9.234;2023-10-09T06:39:34;26.80;;;7.53;;
20445;SDS011;10382;49.140;9.234;2023-10-09T06:42:19;30.23;;;8.03;;
20445;SDS011;10382;49.140;9.234;2023-10-09T06:45:09;22.63;;;8.03;;
20445;SDS011;10382;49.140;9.234;2023-10-09T06:47:41;19.07;;;8.50;;
20445;SDS011;10382;49.140;9.234;2023-10-09T06:50:08;28.67;;;9.73;;
20445;SDS011;10382;49.140;9.234;2023-10-09T06:52:55;28.67;;;9.60;;
20445;SDS011;10382;49.140;9.234;2023-10-09T06:55:44;23.37;;;9.33;;
20445;SDS011;10382;49.140;9.234;2023-10-09T06:58:14;18.27;;;7.67;;
20445;SDS011;10382;49.140;9.234;2023-10-09T07:00:47;23.93;;;9.63;;
20445;SDS011;10382;49.140;9.234;2023-10-09T07:03:26;26.40;;;11.13;;
20445;SDS011;10382;49.140;9.234;2023-10-09T07:06:04;35.00;;;9.47;;
20445;SDS011;10382;49.140;9.234;2023-10-09T07:08:34;22.80;;;9.50;;
20445;SDS011;10382;49.140;9.234;2023-10-09T07:11:03;19.77;;;7.87;;
20445;SDS011;10382;49.140;9.234;2023-10-09T07:13:51;22.17;;;8.73;;
20445;SDS011;10382;49.140;9.234;2023-10-09T07:16:21;19.83;;;8.80;;
20445;SDS011;10382;49.140;9.234;2023-10-09T07:18:53;29.00;;;9.00;;
20445;SDS011;10382;49.140;9.234;2023-10-09T07:21:27;15.50;;;8.50;;
20445;SDS011;10382;49.140;9.234;2023-10-09T07:23:55;36.83;;;7.47;;
20445;SDS011;10382;49.140;9.234;2023-10-09T07:26:24;23.77;;;8.23;;
20445;SDS011;10382;49.140;9.234;2023-10-09T07:29:03;21.83;;;7.67;;
20445;SDS011;10382;49.140;9.234;2023-10-09T07:31:47;13.23;;;6.30;;
20445;SDS011;10382;49.140;9.234;2023-10-09T07:34:22;23.67;;;8.43;;
20445;SDS011;10382;49.140;9.234;2023-10-09T07:37:18;29.07;;;8.37;;
20445;SDS011;10382;49.140;9.234;2023-10-09T07:39:47;20.33;;;7.13;;
20445;SDS011;10382;49.140;9.234;2023-10-09T07:42:22;20.23;;;7.97;;
20445;SDS011;10382;49.140;9.234;2023-10-09T07:45:00;22.07;;;8.43;;
20445;SDS011;10382;49.140;9.234;2023-10-09T07:47:37;25.80;;;8.07;;
20445;SDS011;10382;49.140;9.234;2023-10-09T07:50:18;20.70;;;8.13;;
20445;SDS011;10382;49.140;9.234;2023-10-09T07:52:47;18.30;;;8.67;;
20445;SDS011;10382;49.140;9.234;2023-10-09T07:55:15;22.73;;;7.50;;
20445;SDS011;10382;49.140;9.234;2023-10-09T07:57:54;18.43;;;7.00;;
20445;SDS011;10382;49.140;9.234;2023-10-09T08:00:23;31.57;;;8.87;;
20445;SDS011;10382;49.140;9.234;2023-10-09T08:03:31;26.93;;;8.17;;
20445;SDS011;10382;49.140;9.234;2023-10-09T08:05:59;17.30;;;7.40;;
20445;SDS011;10382;49.140;9.234;2023-10-09T08:08:52;21.70;;;8.07;;
20445;SDS011;10382;49.140;9.234;2023-10-09T08:11:33;31.13;;;8.60;;
20445;SDS011;10382;49.140;9.234;2023-10-09T08:14:17;25.37;;;6.97;;
20445;SDS011;10382;49.140;9.234;2023-10-09T08:17:09;23.00;;;7.47;;
20445;SDS011;10382;49.140;9.234;2023-10-09T08:19:41;29.23;;;8.43;;
20445;SDS011;10382;49.140;9.234;2023-10-09T08:22:20;21.33;;;8.03;;
20445;SDS011;10382;49.140;9.234;2023-10-09T08:25:05;22.27;;;7.80;;
20445;SDS011;10382;49.140;9.234;2023-10-09T08:27:33;22.87;;;8.07;;
20445;SDS011;10382;49.140;9.234;2023-10-09T08:30:19;19.47;;;8.30;;
20445;SDS011;10382;49.140;9.234;2023-10-09T08:33:07;23.40;;;7.60;;
20445;SDS011;10382;49.140;9.234;2023-10-09T08:35:52;24.13;;;9.10;;
20445;SDS011;10382;49.140;9.234;2023-10-09T08:38:27;30.60;;;8.20;;
20445;SDS011;10382;49.140;9.234;2023-10-09T08:41:05;19.53;;;6.63;;
20445;SDS011;10382;49.140;9.234;2023-10-09T08:43:41;23.10;;;9.20;;
20445;SDS011;10382;49.140;9.234;2023-10-09T08:46:15;30.90;;;7.90;;
20445;SDS011;10382;49.140;9.234;2023-10-09T08:48:46;26.40;;;9.70;;
20445;SDS011;10382;49.140;9.234;2023-10-09T08:51:14;24.90;;;8.63;;
20445;SDS011;10382;49.140;9.234;2023-10-09T08:53:43;27.63;;;8.27;;
20445;SDS011;10382;49.140;9.234;2023-10-09T08:56:11;24.60;;;8.03;;
20445;SDS011;10382;49.140;9.234;2023-10-09T08:58:40;31.47;;;8.60;;
20445;SDS011;10382;49.140;9.234;2023-10-09T09:01:07;23.97;;;8.83;;
20445;SDS011;10382;49.140;9.234;2023-10-09T09:03:39;27.37;;;9.20;;
20445;SDS011;10382;49.140;9.234;2023-10-09T09:06:10;20.43;;;8.00;;
20445;SDS011;10382;49.140;9.234;2023-10-09T09:08:39;24.17;;;7.80;;
20445;SDS011;10382;49.140;9.234;2023-10-09T09:11:10;27.43;;;7.30;;
20445;SDS011;10382;49.140;9.234;2023-10-09T09:13:39;29.00;;;9.33;;
20445;SDS011;10382;49.140;9.234;2023-10-09T09:16:14;22.30;;;9.70;;
20445;SDS011;10382;49.140;9.234;2023-10-09T09:18:52;23.87;;;9.93;;
20445;SDS011;10382;49.140;9.234;2023-10-09T09:21:30;39.43;;;10.67;;
20445;SDS011;10382;49.140;9.234;2023-10-09T09:24:03;42.07;;;15.33;;
20445;SDS011;10382;49.140;9.234;2023-10-09T09:26:40;46.83;;;16.17;;
20445;SDS011;10382;49.140;9.234;2023-10-09T09:29:11;42.43;;;12.50;;
20445;SDS011;10382;49.140;9.234;2023-10-09T09:31:39;43.27;;;10.50;;
20445;SDS011;10382;49.140;9.234;2023-10-09T09:34:18;37.60;;;10.60;;
20445;SDS011;10382;49.140;9.234;2023-10-09T09:36:52;32.60;;;8.93;;
20445;SDS011;10382;49.140;9.234;2023-10-09T09:39:24;23.33;;;8.63;;
20445;SDS011;10382;49.140;9.234;2023-10-09T09:41:55;24.70;;;7.20;;
20445;SDS011;10382;49.140;9.234;2023-10-09T09:44:29;30.77;;;7.90;;
20445;SDS011;10382;49.140;9.234;2023-10-09T09:46:59;31.83;;;8.43;;
20445;SDS011;10382;49.140;9.234;2023-10-09T09:49:28;20.97;;;8.47;;
20445;SDS011;10382;49.140;9.234;2023-10-09T09:51:59;20.63;;;8.27;;
20445;SDS011;10382;49.140;9.234;2023-10-09T09:54:28;23.83;;;8.43;;
20445;SDS011;10382;49.140;9.234;2023-10-09T09:56:59;26.70;;;9.57;;
20445;SDS011;10382;49.140;9.234;2023-10-09T09:59:33;21.47;;;9.00;;
20445;SDS011;10382;49.140;9.234;2023-10-09T10:02:15;23.27;;;8.73;;
20445;SDS011;10382;49.140;9.234;2023-10-09T10:04:51;18.50;;;8.13;;
20445;SDS011;10382;49.140;9.234;2023-10-09T10:07:23;26.23;;;8.77;;
20445;SDS011;10382;49.140;9.234;2023-10-09T10:09:53;32.53;;;10.43;;
20445;SDS011;10382;49.140;9.234;2023-10-09T10:15:29;40.33;;;10.13;;
20445;SDS011;10382;49.140;9.234;2023-10-09T10:18:53;30.93;;;10.47;;
20445;SDS011;10382;49.140;9.234;2023-10-09T10:21:25;29.73;;;9.13;;
20445;SDS011;10382;49.140;9.234;2023-10-09T10:27:19;21.97;;;9.63;;
20445;SDS011;10382;49.140;9.234;2023-10-09T10:32:58;36.73;;;7.63;;
20445;SDS011;10382;49.140;9.234;2023-10-09T10:35:34;37.63;;;10.50;;
20445;SDS011;10382;49.140;9.234;2023-10-09T10:38:27;25.70;;;6.73;;
20445;SDS011;10382;49.140;9.234;2023-10-09T10:41:12;18.70;;;7.07;;
20445;SDS011;10382;49.140;9.234;2023-10-09T10:43:43;27.00;;;7.87;;
20445;SDS011;10382;49.140;9.234;2023-10-09T10:46:20;19.00;;;7.73;;
20445;SDS011;10382;49.140;9.234;2023-10-09T10:49:03;24.67;;;8.90;;
20445;SDS011;10382;49.140;9.234;2023-10-09T10:51:40;39.60;;;9.03;;
20445;SDS011;10382;49.140;9.234;2023-10-09T10:54:19;26.20;;;8.40;;
20445;SDS011;10382;49.140;9.234;2023-10-09T10:57:17;28.60;;;7.97;;
20445;SDS011;10382;49.140;9.234;2023-10-09T11:00:09;33.43;;;7.60;;
20445;SDS011;10382;49.140;9.234;2023-10-09T11:03:00;18.97;;;7.67;;
20445;SDS011;10382;49.140;9.234;2023-10-09T11:05:39;17.90;;;7.83;;
20445;SDS011;10382;49.140;9.234;2023-10-09T11:08:09;40.80;;;8.70;;
20445;SDS011;10382;49.140;9.234;2023-10-09T11:10:36;32.63;;;8.43;;
20445;SDS011;10382;49.140;9.234;2023-10-09T11:13:20;20.57;;;6.80;;
20445;SDS011;10382;49.140;9.234;2023-10-09T11:15:59;32.93;;;7.50;;
20445;SDS011;10382;49.140;9.234;2023-10-09T11:18:54;26.80;;;6.90;;
20445;SDS011;10382;49.140;9.234;2023-10-09T11:21:22;21.83;;;7.57;;
20445;SDS011;10382;49.140;9.234;2023-10-09T11:23:56;33.20;;;8.43;;
20445;SDS011;10382;49.140;9.234;2023-10-09T11:26:44;21.37;;;7.70;;
20445;SDS011;10382;49.140;9.234;2023-10-09T11:29:19;17.63;;;7.20;;
20445;SDS011;10382;49.140;9.234;2023-10-09T11:31:58;19.10;;;6.70;;
20445;SDS011;10382;49.140;9.234;2023-10-09T11:34:25;22.13;;;8.33;;
20445;SDS011;10382;49.140;9.234;2023-10-09T11:36:57;16.57;;;6.80;;
20445;SDS011;10382;49.140;9.234;2023-10-09T11:39:27;30.10;;;8.63;;
20445;SDS011;10382;49.140;9.234;2023-10-09T11:42:03;24.27;;;6.13;;
20445;SDS011;10382;49.140;9.234;2023-10-09T11:44:39;17.90;;;6.43;;
20445;SDS011;10382;49.140;9.234;2023-10-09T11:47:11;16.37;;;6.27;;
20445;SDS011;10382;49.140;9.234;2023-10-09T11:49:58;25.53;;;7.03;;
20445;SDS011;10382;49.140;9.234;2023-10-09T11:52:55;14.40;;;5.30;;
20445;SDS011;10382;49.140;9.234;2023-10-09T11:55:34;25.03;;;6.60;;
20445;SDS011;10382;49.140;9.234;2023-10-09T11:58:01;16.10;;;6.27;;
20445;SDS011;10382;49.140;9.234;2023-10-09T12:00:29;37.27;;;6.70;;
20445;SDS011;10382;49.140;9.234;2023-10-09T12:03:09;20.03;;;6.40;;
20445;SDS011;10382;49.140;9.234;2023-10-09T12:05:36;17.67;;;6.10;;
20445;SDS011;10382;49.140;9.234;2023-10-09T12:08:07;20.70;;;6.20;;
20445;SDS011;10382;49.140;9.234;2023-10-09T12:10:34;32.87;;;7.20;;
20445;SDS011;10382;49.140;9.234;2023-10-09T12:13:03;29.27;;;7.17;;
20445;SDS011;10382;49.140;9.234;2023-10-09T12:15:30;39.03;;;6.57;;
20445;SDS011;10382;49.140;9.234;2023-10-09T12:18:03;17.53;;;6.13;;
20445;SDS011;10382;49.140;9.234;2023-10-09T12:20:35;30.57;;;6.20;;
20445;SDS011;10382;49.140;9.234;2023-10-09T12:23:03;15.50;;;6.03;;
20445;SDS011;10382;49.140;9.234;2023-10-09T12:25:31;16.47;;;6.17;;
20445;SDS011;10382;49.140;9.234;2023-10-09T12:28:00;21.30;;;5.83;;
20445;SDS011;10382;49.140;9.234;2023-10-09T12:30:28;17.80;;;6.50;;
20445;SDS011;10382;49.140;9.234;2023-10-09T12:32:55;13.73;;;5.80;;
20445;SDS011;10382;49.140;9.234;2023-10-09T12:35:23;11.73;;;5.23;;
20445;SDS011;10382;49.140;9.234;2023-10-09T12:37:52;24.27;;;6.23;;
20445;SDS011;10382;49.140;9.234;2023-10-09T12:40:20;10.23;;;5.50;;
20445;SDS011;10382;49.140;9.234;2023-10-09T12:42:54;19.67;;;7.13;;
20445;SDS011;10382;49.140;9.234;2023-10-09T12:45:24;34.83;;;5.80;;
20445;SDS011;10382;49.140;9.234;2023-10-09T12:47:52;23.13;;;6.07;;
20445;SDS011;10382;49.140;9.234;2023-10-09T12:50:24;14.07;;;5.70;;
20445;SDS011;10382;49.140;9.234;2023-10-09T12:52:55;25.57;;;5.97;;
20445;SDS011;10382;49.140;9.234;2023-10-09T12:55:26;20.67;;;4.83;;
20445;SDS011;10382;49.140;9.234;2023-10-09T12:57:57;19.57;;;5.87;;
20445;SDS011;10382;49.140;9.234;2023-10-09T13:00:31;28.13;;;5.73;;
20445;SDS011;10382;49.140;9.234;2023-10-09T13:02:59;12.67;;;5.37;;
20445;SDS011;10382;49.140;9.234;2023-10-09T13:05:27;25.47;;;7.70;;
20445;SDS011;10382;49.140;9.234;2023-10-09T13:07:56;13.77;;;6.80;;
20445;SDS011;10382;49.140;9.234;2023-10-09T13:10:23;35.30;;;6.97;;
20445;SDS011;10382;49.140;9.234;2023-10-09T13:12:51;26.40;;;6.30;;
20445;SDS011;10382;49.140;9.234;2023-10-09T13:15:21;27.83;;;5.77;;
20445;SDS011;10382;49.140;9.234;2023-10-09T13:17:48;27.43;;;6.20;;
20445;SDS011;10382;49.140;9.234;2023-10-09T13:20:18;16.10;;;5.53;;
20445;SDS011;10382;49.140;9.234;2023-10-09T13:22:46;14.53;;;5.43;;
20445;SDS011;10382;49.140;9.234;2023-10-09T13:25:15;14.03;;;5.37;;
20445;SDS011;10382;49.140;9.234;2023-10-09T13:27:48;24.80;;;5.87;;
20445;SDS011;10382;49.140;9.234;2023-10-09T13:30:16;18.70;;;6.30;;
20445;SDS011;10382;49.140;9.234;2023-10-09T13:32:48;18.90;;;6.60;;
20445;SDS011;10382;49.140;9.234;2023-10-09T13:35:16;15.67;;;6.60;;
20445;SDS011;10382;49.140;9.234;2023-10-09T13:37:44;33.20;;;7.70;;
20445;SDS011;10382;49.140;9.234;2023-10-09T13:40:20;18.10;;;7.47;;
20445;SDS011;10382;49.140;9.234;2023-10-09T13:42:53;15.80;;;5.47;;
20445;SDS011;10382;49.140;9.234;2023-10-09T13:45:24;26.53;;;6.00;;
20445;SDS011;10382;49.140;9.234;2023-10-09T13:47:53;22.50;;;7.10;;
20445;SDS011;10382;49.140;9.234;2023-10-09T13:50:23;26.27;;;6.90;;
20445;SDS011;10382;49.140;9.234;2023-10-09T13:52:54;17.07;;;6.10;;
20445;SDS011;10382;49.140;9.234;2023-10-09T13:55:22;19.50;;;5.37;;
20445;SDS011;10382;49.140;9.234;2023-10-09T13:57:56;20.67;;;6.40;;
20445;SDS011;10382;49.140;9.234;2023-10-09T14:00:23;30.80;;;7.10;;
20445;SDS011;10382;49.140;9.234;2023-10-09T14:02:59;16.13;;;5.83;;
20445;SDS011;10382;49.140;9.234;2023-10-09T14:05:36;16.50;;;7.40;;
20445;SDS011;10382;49.140;9.234;2023-10-09T14:08:16;18.53;;;6.17;;
20445;SDS011;10382;49.140;9.234;2023-10-09T14:10:48;18.23;;;6.63;;
20445;SDS011;10382;49.140;9.234;2023-10-09T14:13:15;21.30;;;6.17;;
20445;SDS011;10382;49.140;9.234;2023-10-09T14:15:51;17.53;;;6.20;;
20445;SDS011;10382;49.140;9.234;2023-10-09T14:18:19;18.23;;;6.30;;
20445;SDS011;10382;49.140;9.234;2023-10-09T14:20:46;18.43;;;5.30;;
20445;SDS011;10382;49.140;9.234;2023-10-09T14:23:15;18.70;;;6.90;;
20445;SDS011;10382;49.140;9.234;2023-10-09T14:25:46;14.73;;;6.60;;
20445;SDS011;10382;49.140;9.234;2023-10-09T14:28:15;15.40;;;7.20;;
20445;SDS011;10382;49.140;9.234;2023-10-09T14:30:44;23.80;;;8.37;;
20445;SDS011;10382;49.140;9.234;2023-10-09T14:33:15;22.30;;;6.77;;
20445;SDS011;10382;49.140;9.234;2023-10-09T14:35:47;31.97;;;8.40;;
20445;SDS011;10382;49.140;9.234;2023-10-09T14:38:17;31.20;;;7.90;;
20445;SDS011;10382;49.140;9.234;2023-10-09T14:40:53;22.27;;;8.13;;
20445;SDS011;10382;49.140;9.234;2023-10-09T14:43:22;33.07;;;8.47;;
20445;SDS011;10382;49.140;9.234;2023-10-09T14:45:53;28.10;;;8.10;;
20445;SDS011;10382;49.140;9.234;2023-10-09T14:48:20;42.70;;;8.23;;
20445;SDS011;10382;49.140;9.234;2023-10-09T14:50:51;19.50;;;7.27;;
20445;SDS011;10382;49.140;9.234;2023-10-09T14:53:19;31.73;;;8.03;;
20445;SDS011;10382;49.140;9.234;2023-10-09T14:55:46;24.53;;;8.93;;
20445;SDS011;10382;49.140;9.234;2023-10-09T14:58:14;19.37;;;6.70;;
20445;SDS011;10382;49.140;9.234;2023-10-09T15:00:42;14.77;;;7.13;;
20445;SDS011;10382;49.140;9.234;2023-10-09T15:03:12;25.70;;;6.57;;
20445;SDS011;10382;49.140;9.234;2023-10-09T15:05:40;18.97;;;6.23;;
20445;SDS011;10382;49.140;9.234;2023-10-09T15:08:08;20.73;;;8.17;;
20445;SDS011;10382;49.140;9.234;2023-10-09T15:10:36;23.30;;;7.83;;
20445;SDS011;10382;49.140;9.234;2023-10-09T15:13:09;19.90;;;7.50;;
20445;SDS011;10382;49.140;9.234;2023-10-09T15:15:41;25.90;;;7.57;;
20445;SDS011;10382;49.140;9.234;2023-10-09T15:18:08;19.07;;;6.43;;
20445;SDS011;10382;49.140;9.234;2023-10-09T15:20:37;18.33;;;7.47;;
20445;SDS011;10382;49.140;9.234;2023-10-09T15:23:05;25.80;;;9.40;;